Time;durP1;ratioP1;P1;durP2;ratioP2;P2;SDS_P1;SDS_P2;PMS_P1;PMS_P2;Temp;Humidity;BMP_temperature;BMP_pressure;BME280_temperature;BME280_humidity;BME280_pressure;Samples;Min_cycle;Max_cycle;Signal;HPM_P1;HPM_P2
2022/05/30 00:00:42;;;;;;;4.05;2.58;;;;;;;11.32;82.94;99518.38;5011400;28;20026;-65
2022/05/30 00:03:08;;;;;;;3.88;2.67;;;;;;;11.27;83.77;99516.84;5011591;28;20417;-65
2022/05/30 00:05:34;;;;;;;3.80;2.33;;;;;;;11.24;83.65;99509.00;5011395;28;20393;-65
2022/05/30 00:08:00;;;;;;;3.75;2.33;;;;;;;11.20;84.41;99504.75;5011390;28;20030;-65
2022/05/30 00:10:27;;;;;;;3.65;2.30;;;;;;;11.14;83.92;99507.66;4992203;28;20033;-65
2022/05/30 00:12:54;;;;;;;4.32;2.50;;;;;;;11.05;85.50;99510.72;5010771;28;20133;-65
2022/05/30 00:15:20;;;;;;;6.72;3.00;;;;;;;11.05;85.63;99505.41;5011325;28;20045;-65
2022/05/30 00:17:46;;;;;;;3.85;2.10;;;;;;;11.10;86.05;99495.44;5011256;28;20096;-65
2022/05/30 00:20:12;;;;;;;3.63;2.28;;;;;;;11.07;85.71;99499.06;5011195;28;20034;-65
2022/05/30 00:22:38;;;;;;;4.05;2.40;;;;;;;11.08;86.65;99503.50;5011054;28;20105;-65
2022/05/30 00:25:04;;;;;;;4.70;2.75;;;;;;;11.06;86.56;99499.16;5010897;28;20136;-65
2022/05/30 00:27:31;;;;;;;4.22;2.35;;;;;;;10.98;86.32;99478.19;5009659;28;20330;-65
2022/05/30 00:29:56;;;;;;;6.75;2.60;;;;;;;11.03;87.12;99494.84;5010318;28;20029;-65
2022/05/30 00:32:22;;;;;;;4.32;2.40;;;;;;;10.99;86.35;99495.88;5013200;28;20026;-65
2022/05/30 00:34:47;;;;;;;4.85;2.42;;;;;;;10.91;86.52;99483.81;5013372;28;20105;-65
2022/05/30 00:37:13;;;;;;;3.58;2.35;;;;;;;10.99;86.21;99495.03;5013208;28;20036;-65
2022/05/30 00:39:38;;;;;;;4.18;2.30;;;;;;;10.91;87.38;99486.47;5013040;28;20084;-65
2022/05/30 00:42:14;;;;;;;5.13;2.95;;;;;;;10.92;86.46;99489.13;5013542;28;20022;-65
2022/05/30 00:44:42;;;;;;;3.58;2.35;;;;;;;10.93;87.32;99493.50;5013195;28;20067;-65
2022/05/30 00:47:07;;;;;;;4.15;2.40;;;;;;;10.92;86.62;99496.22;5013455;28;20078;-65
2022/05/30 00:49:35;;;;;;;4.70;2.33;;;;;;;10.83;87.33;99476.19;5013306;28;20061;-65
2022/05/30 00:52:05;;;;;;;4.50;2.58;;;;;;;10.80;86.65;99483.41;5013490;28;20041;-65
2022/05/30 00:54:41;;;;;;;4.22;2.03;;;;;;;10.79;87.06;99492.34;5013309;28;20408;-65
2022/05/30 00:57:20;;;;;;;8.05;1.95;;;;;;;10.76;86.20;99481.84;4996542;28;20037;-64
2022/05/30 01:00:01;;;;;;;6.10;2.70;;;;;;;10.72;86.80;99480.22;5014612;28;20034;-64
2022/05/30 01:02:32;;;;;;;3.58;2.30;;;;;;;10.68;86.68;99473.28;5015011;28;20034;-65
2022/05/30 01:07:44;;;;;;;3.28;2.28;;;;;;;10.62;86.93;99479.75;5014637;28;20041;-64
2022/05/30 01:10:16;;;;;;;5.47;3.00;;;;;;;10.58;88.05;99480.78;5014023;28;20469;-64
2022/05/30 01:12:52;;;;;;;5.50;2.35;;;;;;;10.63;87.57;99468.16;5014574;28;20132;-64
2022/05/30 01:15:36;;;;;;;4.63;2.53;;;;;;;10.71;87.10;99482.00;5014311;28;20026;-64
2022/05/30 01:18:13;;;;;;;4.90;2.88;;;;;;;10.68;87.18;99470.63;5013917;28;20025;-65
2022/05/30 01:21:00;;;;;;;3.70;2.55;;;;;;;10.64;86.72;99473.41;5014327;28;20022;-65
2022/05/30 01:23:43;;;;;;;4.10;2.63;;;;;;;10.58;87.07;99476.34;5014144;28;20071;-65
2022/05/30 01:26:35;;;;;;;9.82;3.25;;;;;;;10.55;86.35;99481.78;5014372;28;20095;-65
2022/05/30 01:29:12;;;;;;;5.20;3.38;;;;;;;10.51;86.70;99477.50;5012376;28;20040;-65
2022/05/30 01:31:38;;;;;;;4.25;3.30;;;;;;;10.43;87.52;99478.75;5012399;28;20076;-65
2022/05/30 01:34:04;;;;;;;4.97;2.90;;;;;;;10.34;86.93;99472.03;5012013;28;20473;-65
2022/05/30 01:36:31;;;;;;;5.10;2.85;;;;;;;10.34;87.99;99468.50;5012156;28;20034;-65
2022/05/30 01:38:57;;;;;;;4.05;2.78;;;;;;;10.29;87.62;99471.34;5012546;28;20097;-65
2022/05/30 01:41:22;;;;;;;8.70;3.20;;;;;;;10.23;88.07;99474.22;5011696;28;20831;-65
2022/05/30 01:43:48;;;;;;;5.60;2.85;;;;;;;10.11;87.41;99458.78;5013573;28;20469;-65
2022/05/30 01:46:16;;;;;;;4.68;2.70;;;;;;;10.14;88.04;99466.63;5013608;28;20034;-65
2022/05/30 01:48:43;;;;;;;3.15;2.08;;;;;;;10.09;88.23;99473.94;5013326;28;20022;-65
2022/05/30 01:51:08;;;;;;;5.30;3.10;;;;;;;9.97;88.80;99453.09;5013846;28;20076;-65
2022/05/30 01:53:34;;;;;;;9.40;2.90;;;;;;;10.09;89.05;99459.75;5013467;28;20061;-65
2022/05/30 01:56:00;;;;;;;3.35;2.30;;;;;;;10.10;88.60;99470.31;5013855;28;20050;-65
2022/05/30 01:58:25;;;;;;;4.43;2.45;;;;;;;10.07;88.52;99470.41;5013667;28;20040;-65
2022/05/30 02:00:50;;;;;;;4.20;2.45;;;;;;;10.00;88.91;99462.75;5013037;28;20022;-65
2022/05/30 02:03:16;;;;;;;5.00;2.50;;;;;;;9.90;89.33;99464.88;5013475;28;20037;-65
2022/05/30 02:05:41;;;;;;;4.47;2.33;;;;;;;9.82;89.33;99461.66;5011461;28;20406;-65
2022/05/30 02:08:08;;;;;;;6.35;2.45;;;;;;;9.81;89.68;99467.03;5011185;28;20110;-65
2022/05/30 02:10:34;;;;;;;8.32;2.70;;;;;;;9.83;90.08;99457.22;5010141;28;20125;-65
2022/05/30 02:13:01;;;;;;;7.03;2.28;;;;;;;9.80;89.81;99462.66;5010226;28;20525;-65
2022/05/30 02:15:27;;;;;;;5.70;3.13;;;;;;;9.80;90.43;99460.84;5010238;28;20018;-65
2022/05/30 02:17:54;;;;;;;3.55;2.17;;;;;;;9.81;89.80;99462.59;5011199;28;20040;-65
2022/05/30 02:20:20;;;;;;;4.93;2.40;;;;;;;9.75;90.78;99457.50;5011439;28;20026;-64
2022/05/30 02:22:46;;;;;;;3.58;2.50;;;;;;;9.66;90.62;99452.56;5011503;28;20064;-65
2022/05/30 02:25:12;;;;;;;4.10;2.47;;;;;;;9.61;90.48;99454.53;5012597;28;20077;-65
2022/05/30 02:27:39;;;;;;;4.95;2.88;;;;;;;9.53;91.31;99453.06;5013012;28;20028;-65
2022/05/30 02:30:05;;;;;;;3.60;2.50;;;;;;;9.49;91.69;99449.66;5012954;28;20108;-65
2022/05/30 02:32:31;;;;;;;5.63;2.53;;;;;;;9.49;92.75;99448.81;5013346;28;20136;-65
2022/05/30 02:37:40;;;;;;;;;;;;;;;9.49;93.92;99452.31;5013386;28;20109;-65
2022/05/30 02:40:06;;;;;;;5.45;2.58;;;;;;;9.41;93.90;99434.97;5012595;28;20020;-65
2022/05/30 02:42:31;;;;;;;4.15;2.88;;;;;;;9.47;94.33;99446.22;5012902;28;20036;-65
2022/05/30 02:44:57;;;;;;;6.90;3.35;;;;;;;9.48;94.19;99452.38;5012603;28;20033;-65
2022/05/30 02:47:22;;;;;;;5.53;3.05;;;;;;;9.53;94.73;99447.75;5013176;28;20040;-65
2022/05/30 02:49:48;;;;;;;4.55;2.75;;;;;;;9.56;94.91;99455.59;5012476;28;20461;-65
2022/05/30 02:52:13;;;;;;;3.22;1.95;;;;;;;9.54;94.65;99455.66;5012766;28;20065;-65
2022/05/30 02:54:39;;;;;;;7.07;2.95;;;;;;;9.56;94.85;99456.47;5012457;28;20032;-65
2022/05/30 02:57:05;;;;;;;5.75;2.65;;;;;;;9.57;94.90;99460.84;5012639;28;20088;-65
2022/05/30 02:59:30;;;;;;;9.85;3.03;;;;;;;9.63;95.00;99458.00;5012290;28;20112;-65
2022/05/30 03:01:56;;;;;;;7.50;2.60;;;;;;;9.72;94.99;99451.47;5011962;28;20030;-65
2022/05/30 03:04:21;;;;;;;6.05;4.13;;;;;;;9.73;94.41;99469.13;5012218;28;20476;-65
2022/05/30 03:06:48;;;;;;;4.68;2.63;;;;;;;9.68;94.85;99453.38;5012320;28;20527;-64
2022/05/30 03:09:14;;;;;;;5.18;2.78;;;;;;;9.74;94.76;99465.53;5012202;28;20040;-64
2022/05/30 03:11:40;;;;;;;5.43;2.95;;;;;;;9.73;94.81;99469.13;5012128;28;20025;-64
2022/05/30 03:14:05;;;;;;;4.63;2.78;;;;;;;9.75;94.69;99467.28;5012590;28;20029;-64
2022/05/30 03:16:31;;;;;;;5.07;2.70;;;;;;;9.70;95.05;99464.81;5012058;28;20539;-65
2022/05/30 03:18:57;;;;;;;4.97;2.75;;;;;;;9.63;95.07;99473.91;5011798;28;20026;-65
2022/05/30 03:21:23;;;;;;;6.03;3.17;;;;;;;9.60;95.19;99474.03;5011879;28;20040;-64
2022/05/30 03:23:49;;;;;;;6.75;3.00;;;;;;;9.58;95.40;99478.53;5011970;28;20105;-65
2022/05/30 03:26:16;;;;;;;4.38;2.55;;;;;;;9.56;95.45;99474.19;5011819;28;20455;-64
2022/05/30 03:28:41;;;;;;;10.38;3.00;;;;;;;9.51;95.87;99478.81;5011934;28;20091;-64
2022/05/30 03:31:08;;;;;;;6.78;3.17;;;;;;;9.53;95.25;99471.66;5011888;28;20425;-64
2022/05/30 03:33:35;;;;;;;6.38;3.30;;;;;;;9.49;95.45;99478.84;5011668;28;20512;-65
2022/05/30 03:36:00;;;;;;;5.75;3.35;;;;;;;9.49;95.58;99473.56;5011933;28;20085;-65
2022/05/30 03:38:26;;;;;;;6.38;2.72;;;;;;;9.48;95.82;99469.19;5011627;28;20117;-65
2022/05/30 03:40:51;;;;;;;5.25;2.88;;;;;;;9.46;95.45;99471.00;5010594;28;20061;-65
2022/05/30 03:43:16;;;;;;;6.60;3.35;;;;;;;9.45;95.82;99471.06;5010345;28;20034;-65
2022/05/30 03:45:44;;;;;;;6.78;3.15;;;;;;;9.48;95.48;99479.78;5009798;28;20029;-65
2022/05/30 03:48:12;;;;;;;5.68;3.00;;;;;;;9.50;95.24;99472.66;5009758;28;20026;-64
2022/05/30 03:50:42;;;;;;;4.68;2.22;;;;;;;9.56;95.13;99479.50;5010244;28;20037;-64
2022/05/30 03:53:08;;;;;;;5.32;2.63;;;;;;;9.55;94.50;99476.00;5010107;28;20049;-65
2022/05/30 03:55:36;;;;;;;5.55;2.88;;;;;;;9.56;94.46;99482.16;5010478;28;20196;-65
2022/05/30 03:58:06;;;;;;;6.60;2.80;;;;;;;9.65;94.06;99482.69;5011110;28;20598;-65
2022/05/30 04:00:33;;;;;;;5.13;2.90;;;;;;;9.69;93.71;99484.31;5010799;28;20060;-64
2022/05/30 04:03:00;;;;;;;4.78;2.80;;;;;;;9.73;93.22;99493.91;5011476;28;20401;-65
2022/05/30 04:05:26;;;;;;;6.40;3.08;;;;;;;9.73;93.16;99485.94;5010865;28;20509;-65
2022/05/30 04:07:52;;;;;;;5.95;2.65;;;;;;;9.69;93.79;99479.00;5011273;28;20029;-65
2022/05/30 04:10:17;;;;;;;4.53;2.65;;;;;;;9.69;93.27;99489.63;5011373;28;20033;-65
2022/05/30 04:12:43;;;;;;;5.28;2.50;;;;;;;9.71;93.28;99493.09;5011295;28;20387;-65
2022/05/30 04:15:17;;;;;;;5.88;2.85;;;;;;;9.71;93.39;99487.78;5011150;28;20493;-65
2022/05/30 04:17:42;;;;;;;5.10;3.13;;;;;;;9.81;93.21;99488.28;5010961;28;20046;-65
2022/05/30 04:20:09;;;;;;;4.47;2.72;;;;;;;9.81;92.64;99489.16;5011123;28;20028;-65
2022/05/30 04:22:34;;;;;;;5.38;2.80;;;;;;;9.82;92.40;99485.56;5009527;28;20053;-64
2022/05/30 04:25:00;;;;;;;5.78;2.75;;;;;;;9.88;92.57;99489.78;5009090;28;20077;-65
2022/05/30 04:27:25;;;;;;;4.55;3.13;;;;;;;9.86;92.49;99481.88;5008723;28;20028;-65
2022/05/30 04:29:50;;;;;;;5.88;2.95;;;;;;;9.92;92.73;99491.38;5009726;28;20105;-65
2022/05/30 04:32:17;;;;;;;4.85;2.75;;;;;;;10.05;92.94;99490.88;5009354;28;20038;-64
2022/05/30 04:34:43;;;;;;;4.85;2.42;;;;;;;10.07;92.51;99497.00;5009904;28;20030;-65
2022/05/30 04:37:09;;;;;;;6.38;3.67;;;;;;;10.10;92.79;99490.72;5010242;28;20030;-65
2022/05/30 04:39:35;;;;;;;5.75;3.13;;;;;;;10.19;93.16;99496.56;5011160;28;20528;-65
2022/05/30 04:42:01;;;;;;;5.35;3.13;;;;;;;10.26;93.37;99506.00;5010722;28;20110;-65
2022/05/30 04:44:26;;;;;;;5.13;3.08;;;;;;;10.34;92.65;99498.63;5010986;28;20447;-65
2022/05/30 04:46:53;;;;;;;7.15;3.17;;;;;;;10.47;92.48;99501.63;5010989;28;20018;-64
2022/05/30 04:49:19;;;;;;;4.30;2.80;;;;;;;10.52;92.08;99504.97;5011136;28;20022;-65
2022/05/30 04:51:44;;;;;;;5.95;3.10;;;;;;;10.62;92.23;99503.69;5010966;28;20101;-65
2022/05/30 04:54:10;;;;;;;4.90;2.92;;;;;;;10.70;92.36;99511.31;5011020;28;20026;-65
2022/05/30 04:56:35;;;;;;;5.82;3.40;;;;;;;10.73;92.68;99527.16;5010302;28;20508;-65
2022/05/30 04:59:01;;;;;;;5.00;2.85;;;;;;;10.84;92.04;99519.63;5010866;28;20118;-65
2022/05/30 05:01:27;;;;;;;10.35;6.63;;;;;;;10.99;91.62;99511.84;5010925;28;20045;-65
2022/05/30 05:03:52;;;;;;;10.00;7.80;;;;;;;11.13;91.70;99519.25;5010888;28;20378;-65
2022/05/30 05:06:20;;;;;;;12.27;9.65;;;;;;;11.27;90.50;99520.38;5011219;28;20049;-65
2022/05/30 05:09:03;;;;;;;8.48;6.70;;;;;;;11.40;90.48;99518.91;5010433;28;20077;-65
2022/05/30 05:11:32;;;;;;;9.02;5.05;;;;;;;11.63;90.14;99520.59;5010671;28;20549;-65
2022/05/30 05:13:58;;;;;;;7.65;3.92;;;;;;;11.74;88.86;99521.00;5010841;28;20113;-65
2022/05/30 05:16:26;;;;;;;5.35;3.28;;;;;;;11.86;88.43;99517.78;5010592;28;20108;-65
2022/05/30 05:18:53;;;;;;;6.78;3.85;;;;;;;11.94;87.83;99531.63;5014217;28;20025;-65
2022/05/30 05:21:31;;;;;;;6.03;3.53;;;;;;;12.04;87.72;99526.72;5014659;28;20088;-65
2022/05/30 05:23:58;;;;;;;7.10;3.63;;;;;;;12.20;85.80;99523.28;5013968;28;20038;-65
2022/05/30 05:26:24;;;;;;;5.47;3.00;;;;;;;12.26;85.92;99520.31;5012899;28;20053;-64
2022/05/30 05:28:50;;;;;;;8.05;3.53;;;;;;;12.38;85.35;99533.06;5012765;28;20064;-65
2022/05/30 05:31:22;;;;;;;6.35;3.50;;;;;;;12.42;85.25;99534.63;5012730;28;20022;-64
2022/05/30 05:33:48;;;;;;;6.18;3.60;;;;;;;12.53;84.49;99532.34;5012711;28;20057;-64
2022/05/30 05:36:26;;;;;;;7.25;3.15;;;;;;;12.67;83.60;99535.19;5012433;28;20026;-64
2022/05/30 05:38:52;;;;;;;7.97;4.20;;;;;;;12.63;83.64;99538.97;5012152;28;20057;-64
2022/05/30 05:41:18;;;;;;;6.70;3.50;;;;;;;12.72;82.97;99535.84;5013875;28;20087;-64
2022/05/30 05:43:43;;;;;;;5.97;3.70;;;;;;;12.78;83.23;99538.19;5013982;28;20030;-64
2022/05/30 05:46:14;;;;;;;7.43;3.70;;;;;;;12.79;82.39;99539.94;5013876;28;20122;-64
2022/05/30 05:48:39;;;;;;;6.40;3.45;;;;;;;13.03;82.30;99551.25;4995993;28;20449;-64
2022/05/30 05:51:05;;;;;;;6.30;3.20;;;;;;;13.24;82.50;99543.00;5013501;28;20026;-64
2022/05/30 05:53:30;;;;;;;8.05;4.07;;;;;;;13.38;82.25;99550.31;5013659;28;20053;-64
2022/05/30 05:55:56;;;;;;;7.22;3.35;;;;;;;13.43;81.15;99532.25;5013472;28;20057;-64
2022/05/30 05:58:21;;;;;;;8.38;3.70;;;;;;;13.56;79.98;99548.53;5013493;28;20100;-64
2022/05/30 06:00:47;;;;;;;8.32;3.83;;;;;;;13.62;79.40;99559.75;5013491;28;20515;-64
2022/05/30 06:03:12;;;;;;;6.22;3.78;;;;;;;13.71;77.86;99553.91;5013427;28;20034;-64
2022/05/30 06:05:40;;;;;;;5.03;3.10;;;;;;;13.73;78.06;99540.47;5012450;28;20551;-64
2022/05/30 06:08:06;;;;;;;6.13;3.78;;;;;;;13.71;76.94;99559.25;5011635;28;20449;-64
2022/05/30 06:10:33;;;;;;;8.25;3.20;;;;;;;13.92;78.14;99557.28;4993709;28;20490;-64
2022/05/30 06:12:58;;;;;;;8.85;3.58;;;;;;;14.13;77.22;99564.13;5011385;28;20022;-65
2022/05/30 06:15:24;;;;;;;6.05;3.30;;;;;;;14.21;75.04;99559.22;5011562;28;20048;-65
2022/05/30 06:17:50;;;;;;;5.78;3.40;;;;;;;14.30;73.87;99564.09;5011869;28;20092;-64
2022/05/30 06:20:18;;;;;;;4.72;2.80;;;;;;;14.45;73.22;99568.59;5012778;28;20384;-64
2022/05/30 06:22:44;;;;;;;6.35;3.20;;;;;;;14.71;72.24;99570.69;5012947;28;20088;-64
2022/05/30 06:25:10;;;;;;;6.38;3.10;;;;;;;14.75;72.36;99564.22;5013125;28;20522;-65
2022/05/30 06:27:36;;;;;;;5.72;2.75;;;;;;;14.87;71.88;99573.38;5012547;28;20287;-65
2022/05/30 06:30:03;;;;;;;7.05;2.88;;;;;;;14.92;70.66;99574.84;5012941;28;20030;-65
2022/05/30 06:32:28;;;;;;;6.13;3.15;;;;;;;14.98;70.42;99573.63;5012915;28;20037;-64
2022/05/30 06:34:54;;;;;;;6.80;3.55;;;;;;;15.17;69.55;99575.13;5012835;28;20381;-64
2022/05/30 06:37:20;;;;;;;3.67;2.33;;;;;;;15.41;70.61;99579.13;5012845;28;20037;-65
2022/05/30 06:39:45;;;;;;;4.70;2.63;;;;;;;15.54;68.06;99579.25;5012845;28;20036;-64
2022/05/30 06:42:12;;;;;;;5.22;2.63;;;;;;;15.77;65.88;99587.66;5012812;28;20371;-65
2022/05/30 06:44:38;;;;;;;4.78;2.67;;;;;;;16.01;67.45;99574.56;5012719;28;20103;-65
2022/05/30 06:47:05;;;;;;;9.48;3.40;;;;;;;16.21;64.13;99576.00;5012718;28;20029;-65
2022/05/30 06:49:31;;;;;;;5.30;2.60;;;;;;;16.28;64.58;99582.69;5012951;28;20034;-69
2022/05/30 06:51:57;;;;;;;4.20;2.50;;;;;;;16.34;64.41;99583.16;5012595;28;20112;-64
2022/05/30 06:54:23;;;;;;;4.88;2.70;;;;;;;16.42;62.38;99585.41;5012669;28;20065;-64
2022/05/30 06:59:34;;;;;;;4.78;2.40;;;;;;;16.84;61.74;99588.03;5012789;28;20037;-65
2022/05/30 07:02:01;;;;;;;4.55;2.58;;;;;;;16.90;61.67;99587.66;4994407;28;20457;-64
2022/05/30 07:04:30;;;;;;;5.18;2.78;;;;;;;16.99;61.16;99587.91;5012444;28;20457;-64
2022/05/30 07:06:55;;;;;;;3.75;2.45;;;;;;;17.13;61.58;99593.22;5012276;28;20116;-64
2022/05/30 07:09:21;;;;;;;4.22;2.35;;;;;;;17.25;57.81;99591.56;5012204;28;20537;-64
2022/05/30 07:11:49;;;;;;;5.05;2.50;;;;;;;17.32;58.44;99590.19;5012353;28;20095;-65
2022/05/30 07:14:16;;;;;;;4.40;2.33;;;;;;;17.46;57.98;99584.78;5012255;28;20025;-65
2022/05/30 07:16:42;;;;;;;4.78;2.40;;;;;;;17.72;57.34;99589.28;5012001;28;20432;-65
2022/05/30 07:19:09;;;;;;;6.05;2.17;;;;;;;17.93;56.71;99590.47;5011842;28;20541;-65
2022/05/30 07:21:35;;;;;;;3.63;2.13;;;;;;;17.90;56.42;99588.00;5011976;28;20114;-65
2022/05/30 07:24:00;;;;;;;5.18;2.55;;;;;;;18.04;55.32;99573.56;5010550;28;20033;-65
2022/05/30 07:26:26;;;;;;;4.38;2.72;;;;;;;18.21;55.55;99584.91;5010552;28;20304;-65
2022/05/30 07:28:51;;;;;;;5.28;2.30;;;;;;;18.51;54.53;99594.50;5010415;28;20026;-64
2022/05/30 07:31:19;;;;;;;4.63;2.10;;;;;;;18.72;54.37;99590.25;5010683;28;20029;-65
2022/05/30 07:33:46;;;;;;;5.30;2.42;;;;;;;19.11;52.74;99584.66;5010522;28;20030;-65
2022/05/30 07:36:21;;;;;;;4.10;2.50;;;;;;;19.52;51.66;99587.84;5011356;28;20033;-65
2022/05/30 07:38:48;;;;;;;3.35;2.20;;;;;;;20.00;50.28;99583.22;5010241;28;20485;-65
2022/05/30 07:41:14;;;;;;;3.83;2.20;;;;;;;20.15;48.79;99591.00;5009714;28;20022;-65
2022/05/30 07:43:40;;;;;;;3.30;1.90;;;;;;;20.25;48.78;99596.53;5009731;28;20053;-65
2022/05/30 07:46:08;;;;;;;2.75;1.80;;;;;;;20.64;46.21;99586.09;5009783;28;20131;-65
2022/05/30 07:48:34;;;;;;;4.45;2.00;;;;;;;20.85;47.73;99592.50;5009865;28;20105;-65
2022/05/30 07:51:01;;;;;;;3.88;2.17;;;;;;;21.10;47.71;99587.81;5010088;28;20125;-65
2022/05/30 07:53:27;;;;;;;3.85;2.17;;;;;;;21.26;47.58;99597.25;5010276;28;20041;-65
2022/05/30 07:55:55;;;;;;;4.72;2.17;;;;;;;21.50;45.31;99594.34;5010243;28;20053;-65
2022/05/30 07:58:21;;;;;;;3.85;1.90;;;;;;;21.77;44.98;99592.03;5010154;28;20026;-65
2022/05/30 08:00:49;;;;;;;3.45;1.75;;;;;;;21.84;45.28;99593.25;5010532;28;20033;-65
2022/05/30 08:03:16;;;;;;;6.00;2.05;;;;;;;21.77;44.88;99582.06;5009886;28;20032;-64
2022/05/30 08:05:47;;;;;;;3.63;1.95;;;;;;;22.09;44.45;99582.88;5009754;28;20072;-64
2022/05/30 08:08:13;;;;;;;3.92;2.00;;;;;;;22.18;44.29;99586.63;5009876;28;20026;-64
2022/05/30 08:10:39;;;;;;;3.70;1.90;;;;;;;22.36;43.13;99590.44;5010038;28;20026;-64
2022/05/30 08:13:05;;;;;;;3.60;1.52;;;;;;;22.38;42.20;99583.03;5010002;28;20508;-64
2022/05/30 08:15:31;;;;;;;3.17;1.60;;;;;;;22.23;42.29;99584.38;5010254;28;20022;-64
2022/05/30 08:17:58;;;;;;;4.35;1.65;;;;;;;22.22;41.26;99582.69;5009976;28;20033;-64
2022/05/30 08:20:26;;;;;;;5.13;1.63;;;;;;;22.48;42.40;99578.53;4991990;28;20509;-64
2022/05/30 08:22:52;;;;;;;3.95;2.00;;;;;;;22.87;42.49;99585.88;5009780;28;20030;-64
2022/05/30 08:25:19;;;;;;;3.03;1.90;;;;;;;23.20;42.03;99581.94;5009875;28;20512;-64
2022/05/30 08:27:46;;;;;;;3.78;1.70;;;;;;;23.30;41.35;99580.16;5009743;28;20437;-64
2022/05/30 08:30:13;;;;;;;5.28;1.70;;;;;;;23.43;41.99;99583.44;5009758;28;20074;-64
2022/05/30 08:32:41;;;;;;;4.60;1.50;;;;;;;23.87;42.23;99587.47;5009701;28;20022;-64
2022/05/30 08:35:09;;;;;;;3.10;1.40;;;;;;;24.00;39.82;99586.19;5009756;28;20109;-64
2022/05/30 08:37:37;;;;;;;2.65;1.40;;;;;;;24.04;38.82;99574.03;5010038;28;20029;-64
2022/05/30 08:42:57;;;;;;;2.30;1.10;;;;;;;24.43;36.96;99586.53;5010555;28;20119;-64
2022/05/30 08:45:23;;;;;;;3.88;1.55;;;;;;;24.55;37.59;99579.06;5011067;28;20506;-64
2022/05/30 08:47:50;;;;;;;3.83;1.83;;;;;;;24.56;38.12;99586.22;5011391;28;20029;-64
2022/05/30 08:50:54;;;;;;;2.42;1.30;;;;;;;24.46;38.72;99588.94;5010941;28;20018;-63
2022/05/30 08:54:00;;;;;;;3.83;1.48;;;;;;;24.41;37.60;99593.13;4985996;28;20038;-63
2022/05/30 08:56:29;;;;;;;6.07;1.90;;;;;;;24.58;37.63;99584.19;5014000;28;20029;-63
2022/05/30 08:59:07;;;;;;;1.95;1.23;;;;;;;24.64;37.71;99589.06;5013248;28;20036;-63
2022/05/30 09:01:43;;;;;;;4.55;1.50;;;;;;;24.78;36.80;99585.88;5013343;28;20117;-63
2022/05/30 09:04:34;;;;;;;5.07;1.40;;;;;;;24.79;38.38;99587.59;5013210;28;20040;-63
2022/05/30 09:07:08;;;;;;;1.40;1.05;;;;;;;24.85;35.75;99584.25;5013194;28;20033;-63
2022/05/30 09:09:47;;;;;;;3.20;1.40;;;;;;;25.06;35.65;99579.41;5013167;28;20445;-63
2022/05/30 09:12:44;;;;;;;2.70;1.23;;;;;;;25.20;33.73;99586.22;5014106;28;20018;-62
2022/05/30 09:15:24;;;;;;;3.13;1.60;;;;;;;25.44;36.09;99573.75;5013721;28;20040;-63
2022/05/30 09:18:12;;;;;;;5.22;1.35;;;;;;;25.56;36.54;99577.13;5013193;28;20065;-62
2022/05/30 09:20:41;;;;;;;4.30;1.27;;;;;;;25.25;35.67;99590.22;5012595;28;20603;-63
2022/05/30 09:23:08;;;;;;;3.45;1.40;;;;;;;25.32;34.87;99588.56;5013102;28;20028;-63
2022/05/30 09:25:56;;;;;;;2.97;1.58;;;;;;;25.55;35.23;99576.25;5012880;28;20053;-63
2022/05/30 09:28:28;;;;;;;4.07;1.10;;;;;;;25.68;34.26;99574.00;5012458;28;20493;-63
2022/05/30 09:31:26;;;;;;;2.67;1.13;;;;;;;26.12;31.56;99574.06;5012137;28;20092;-63
2022/05/30 09:33:55;;;;;;;1.40;0.75;;;;;;;26.40;30.69;99568.31;5013954;28;20099;-63
2022/05/30 09:36:24;;;;;;;2.38;1.27;;;;;;;26.12;29.73;99568.63;5014737;28;20130;-63
2022/05/30 09:38:55;;;;;;;2.33;1.08;;;;;;;25.55;30.63;99565.34;5013659;28;20044;-63
2022/05/30 09:41:40;;;;;;;2.75;1.00;;;;;;;25.58;31.51;99569.66;5013853;28;20025;-64
2022/05/30 09:44:18;;;;;;;3.33;0.90;;;;;;;25.46;30.33;99569.03;5013984;28;20064;-63
2022/05/30 09:46:52;;;;;;;1.35;0.73;;;;;;;25.71;29.52;99565.53;5014156;28;20441;-63
2022/05/30 09:49:22;;;;;;;3.08;0.90;;;;;;;25.62;30.13;99558.28;5013791;28;20034;-63
2022/05/30 09:52:00;;;;;;;2.65;1.00;;;;;;;25.91;30.75;99561.59;5013746;28;20085;-63
2022/05/30 09:54:25;;;;;;;3.50;1.15;;;;;;;26.16;32.24;99564.56;5013168;28;20381;-63
2022/05/30 09:57:05;;;;;;;1.80;1.00;;;;;;;26.20;30.47;99560.50;5012484;28;20492;-63
2022/05/30 09:59:37;;;;;;;1.73;0.88;;;;;;;26.03;28.14;99558.69;5011771;28;20509;-64
2022/05/30 10:02:03;;;;;;;4.22;1.30;;;;;;;25.47;28.13;99559.00;5012111;28;20028;-64
2022/05/30 10:04:34;;;;;;;1.85;0.90;;;;;;;26.03;29.56;99553.22;5011374;28;20029;-63
2022/05/30 10:07:09;;;;;;;3.83;1.25;;;;;;;26.07;29.52;99557.34;5012162;28;20029;-63
2022/05/30 10:09:59;;;;;;;5.60;0.98;;;;;;;26.06;29.07;99559.22;5012705;28;20103;-63
2022/05/30 10:12:42;;;;;;;4.13;1.02;;;;;;;26.75;27.62;99551.84;5013074;28;20045;-64
2022/05/30 10:15:30;;;;;;;1.48;1.08;;;;;;;27.07;26.37;99560.16;5013498;28;20525;-65
2022/05/30 10:18:16;;;;;;;1.83;1.00;;;;;;;27.04;25.35;99568.69;5013362;28;20096;-65
2022/05/30 10:21:03;;;;;;;1.50;0.82;;;;;;;27.01;27.27;99554.50;5013717;28;20025;-65
2022/05/30 10:30:18;;;;;;;;;;;;;;;25.60;26.48;99568.47;5013722;28;20076;-65
2022/05/30 10:33:19;;;;;;;3.05;1.08;;;;;;;26.17;29.28;99561.69;5012518;28;19913;-64
2022/05/30 10:35:53;;;;;;;1.88;1.02;;;;;;;26.66;28.85;99562.88;4975911;28;20042;-64
2022/05/30 10:38:44;;;;;;;4.15;1.00;;;;;;;26.77;28.76;99560.69;5012657;28;20026;-64
2022/05/30 10:41:19;;;;;;;1.38;0.80;;;;;;;27.02;26.73;99565.25;4993297;28;20087;-64
2022/05/30 10:44:08;;;;;;;1.52;1.05;;;;;;;27.18;27.75;99561.75;4993267;28;20042;-64
2022/05/30 10:46:42;;;;;;;3.38;1.02;;;;;;;26.76;26.69;99571.78;4993225;28;20579;-64
2022/05/30 10:49:12;;;;;;;1.50;0.93;;;;;;;26.53;24.80;99562.41;4993298;28;20085;-64
2022/05/30 10:52:17;;;;;;;2.33;1.10;;;;;;;26.87;27.39;99566.06;4993127;28;20037;-64
2022/05/30 10:54:54;;;;;;;1.20;0.80;;;;;;;27.57;24.09;99572.94;4992951;28;20097;-64
2022/05/30 10:57:40;;;;;;;2.05;0.93;;;;;;;27.81;27.24;99562.91;5007544;28;20555;-64
2022/05/30 11:00:22;;;;;;;2.75;0.80;;;;;;;28.11;30.07;99569.59;5006068;28;20048;-64
2022/05/30 11:02:57;;;;;;;2.28;0.95;;;;;;;28.23;25.12;99580.03;4992923;28;20426;-65
2022/05/30 11:05:28;;;;;;;1.42;0.80;;;;;;;28.29;24.41;99568.41;4992664;28;20030;-65
2022/05/30 11:08:03;;;;;;;2.33;0.88;;;;;;;28.70;25.60;99562.88;4992878;28;20026;-64
2022/05/30 11:10:51;;;;;;;2.55;0.98;;;;;;;28.91;25.00;99565.88;4993201;28;20480;-64
2022/05/30 11:13:40;;;;;;;1.33;0.50;;;;;;;28.23;22.83;99568.22;4992826;28;20133;-64
2022/05/30 11:16:22;;;;;;;1.40;0.73;;;;;;;28.08;25.17;99572.69;4992677;28;20056;-64
2022/05/30 11:19:13;;;;;;;1.27;0.70;;;;;;;28.12;24.56;99563.94;4992720;28;20061;-65
2022/05/30 11:21:57;;;;;;;3.30;0.70;;;;;;;28.31;25.25;99571.81;4992514;28;20038;-65
2022/05/30 11:24:23;;;;;;;1.70;0.82;;;;;;;27.65;24.46;99562.03;4992360;28;20475;-65
2022/05/30 11:27:03;;;;;;;1.85;1.08;;;;;;;28.17;27.15;99564.28;5003385;28;20101;-64
2022/05/30 11:30:02;;;;;;;3.95;0.80;;;;;;;28.93;26.50;99550.97;5011738;28;20076;-65
2022/05/30 11:32:41;;;;;;;3.08;0.70;;;;;;;29.04;24.42;99561.56;5012148;28;20025;-64
2022/05/30 11:35:29;;;;;;;2.80;0.82;;;;;;;29.14;25.02;99570.41;5011216;28;20112;-64
2022/05/30 11:38:05;;;;;;;2.10;0.70;;;;;;;29.42;24.47;99565.31;5011874;28;20025;-64
2022/05/30 11:41:00;;;;;;;1.60;0.70;;;;;;;29.74;23.25;99565.13;5010813;28;20029;-64
2022/05/30 11:44:07;;;;;;;2.92;0.80;;;;;;;29.87;25.04;99565.34;5007335;28;20040;-64
2022/05/30 11:46:58;;;;;;;2.47;0.98;;;;;;;29.66;22.09;99576.16;4931819;29;20074;-64
2022/05/30 11:49:35;;;;;;;2.58;1.00;;;;;;;29.37;22.84;99576.78;5011824;28;20780;-64
2022/05/30 11:52:35;;;;;;;1.83;0.90;;;;;;;29.57;23.61;99569.00;5011720;28;20029;-64
2022/05/30 11:55:22;;;;;;;1.77;0.80;;;;;;;29.80;24.90;99569.91;5011641;28;20022;-64
2022/05/30 11:57:53;;;;;;;1.45;0.73;;;;;;;30.13;23.18;99563.06;5011743;28;20105;-64
2022/05/30 12:00:42;;;;;;;3.33;0.70;;;;;;;30.48;22.64;99578.91;5011410;28;20104;-65
2022/05/30 12:03:26;;;;;;;0.63;0.50;;;;;;;30.53;22.36;99570.09;5009790;28;20052;-65
2022/05/30 12:06:08;;;;;;;3.30;1.15;;;;;;;30.32;23.57;99565.34;4990420;28;20367;-65
2022/05/30 12:09:05;;;;;;;1.50;0.90;;;;;;;30.29;23.00;99567.59;4990750;28;20088;-65
2022/05/30 12:11:58;;;;;;;2.40;0.80;;;;;;;30.06;22.56;99555.78;4990212;28;20434;-65